Time;durP1;ratioP1;P1;durP2;ratioP2;P2;SDS_P1;SDS_P2;PMS_P1;PMS_P2;Temp;Humidity;BMP_temperature;BMP_pressure;BME280_temperature;BME280_humidity;BME280_pressure;Samples;Min_cycle;Max_cycle;Signal;HPM_P1;HPM_P2
2023/08/05 00:01:25;;;;;;;6.22;3.22;;;;;;;;;;5037697;23;20049;-86
2023/08/05 00:03:58;;;;;;;5.13;3.88;;;;;;;;;;5052390;28;20498;-87
2023/08/05 00:06:26;;;;;;;3.92;1.90;;;;;;;;;;5044024;28;20048;-87
2023/08/05 00:08:53;;;;;;;2.40;1.63;;;;;;;;;;5033881;28;20037;-87
2023/08/05 00:11:21;;;;;;;1.60;1.50;;;;;;;;;;5033443;28;20117;-87
2023/08/05 00:13:48;;;;;;;1.42;1.40;;;;;;;;;;5035551;28;20057;-87
2023/08/05 00:16:16;;;;;;;2.35;2.00;;;;;;;;;;5033235;28;20140;-86
2023/08/05 00:18:43;;;;;;;5.07;1.52;;;;;;;;;;5016231;28;20517;-86
2023/08/05 00:21:10;;;;;;;2.60;1.45;;;;;;;;;;5034080;28;20072;-86
2023/08/05 00:23:38;;;;;;;4.85;1.73;;;;;;;;;;5032490;28;20407;-85
2023/08/05 00:26:05;;;;;;;2.03;1.50;;;;;;;;;;5032695;28;20045;-85
2023/08/05 00:28:32;;;;;;;4.35;1.50;;;;;;;;;;5032989;28;20076;-82
2023/08/05 00:31:00;;;;;;;3.90;1.85;;;;;;;;;;5033955;28;20221;-84
2023/08/05 00:33:27;;;;;;;6.28;1.70;;;;;;;;;;5037960;28;20025;-84
2023/08/05 00:35:54;;;;;;;1.73;1.60;;;;;;;;;;5051061;28;20041;-85
2023/08/05 00:38:22;;;;;;;2.85;1.50;;;;;;;;;;5017234;28;20156;-85
2023/08/05 00:40:49;;;;;;;1.77;1.48;;;;;;;;;;5015859;28;20145;-84
2023/08/05 00:43:16;;;;;;;4.53;2.00;;;;;;;;;;5034858;28;20045;-84
2023/08/05 00:45:44;;;;;;;3.03;1.90;;;;;;;;;;5019247;28;20116;-84
2023/08/05 00:48:11;;;;;;;2.28;1.60;;;;;;;;;;5035101;28;20045;-84
2023/08/05 00:50:39;;;;;;;1.60;1.50;;;;;;;;;;5033817;28;20061;-84
2023/08/05 00:53:07;;;;;;;2.00;1.85;;;;;;;;;;5035720;28;20045;-83
2023/08/05 00:55:35;;;;;;;3.67;2.10;;;;;;;;;;5020130;28;20041;-83
2023/08/05 00:58:02;;;;;;;2.88;1.80;;;;;;;;;;5033558;28;20122;-84
2023/08/05 01:00:30;;;;;;;3.15;1.92;;;;;;;;;;5016652;28;20056;-84
2023/08/05 01:02:57;;;;;;;3.97;1.90;;;;;;;;;;5026875;28;20205;-84
2023/08/05 01:05:25;;;;;;;2.85;1.70;;;;;;;;;;5014889;28;20566;-84
2023/08/05 01:07:52;;;;;;;1.58;1.48;;;;;;;;;;5029332;28;20052;-84
2023/08/05 01:10:20;;;;;;;5.55;1.98;;;;;;;;;;5032724;28;20119;-84
2023/08/05 01:12:47;;;;;;;1.83;1.52;;;;;;;;;;5015304;28;20081;-84
2023/08/05 01:15:15;;;;;;;5.15;1.83;;;;;;;;;;5034990;28;20107;-84
2023/08/05 01:17:42;;;;;;;1.63;1.52;;;;;;;;;;5016665;28;20060;-85
2023/08/05 01:20:11;;;;;;;4.63;1.98;;;;;;;;;;5015229;28;20053;-85
2023/08/05 01:22:43;;;;;;;4.57;2.15;;;;;;;;;;5015236;28;20069;-84
2023/08/05 01:25:32;;;;;;;2.13;1.70;;;;;;;;;;5033942;28;20061;-84
2023/08/05 01:28:00;;;;;;;2.55;1.73;;;;;;;;;;5032519;28;20124;-84
2023/08/05 01:30:27;;;;;;;3.42;1.75;;;;;;;;;;5042149;28;20124;-84
2023/08/05 01:32:56;;;;;;;3.40;1.80;;;;;;;;;;5020957;28;20041;-84
2023/08/05 01:35:24;;;;;;;2.35;1.70;;;;;;;;;;5002077;28;20083;-85
2023/08/05 01:37:52;;;;;;;1.77;1.67;;;;;;;;;;5049026;28;20107;-85
2023/08/05 01:40:19;;;;;;;2.88;1.98;;;;;;;;;;4999678;28;20069;-85
2023/08/05 01:42:46;;;;;;;2.97;2.03;;;;;;;;;;5015038;28;20082;-85
2023/08/05 01:45:14;;;;;;;2.63;1.95;;;;;;;;;;5016128;28;20037;-85
2023/08/05 01:47:41;;;;;;;2.00;1.90;;;;;;;;;;5046417;23;20080;-74
2023/08/05 01:50:09;;;;;;;1.83;1.63;;;;;;;;;;5040841;28;20102;-74
2023/08/05 01:52:36;;;;;;;1.95;1.65;;;;;;;;;;5048680;28;20052;-74
2023/08/05 01:55:04;;;;;;;1.70;1.60;;;;;;;;;;5030448;28;20052;-74
2023/08/05 01:57:31;;;;;;;3.58;1.80;;;;;;;;;;5030226;28;20056;-74
2023/08/05 01:59:59;;;;;;;3.55;2.10;;;;;;;;;;5026039;28;20049;-75
2023/08/05 02:02:26;;;;;;;2.80;1.92;;;;;;;;;;5024936;28;20048;-74
2023/08/05 02:04:54;;;;;;;5.80;2.05;;;;;;;;;;5029523;28;20118;-74
2023/08/05 02:07:21;;;;;;;2.13;1.90;;;;;;;;;;5047038;28;20135;-74
2023/08/05 02:09:48;;;;;;;2.25;1.88;;;;;;;;;;5028124;28;20076;-74
2023/08/05 02:12:16;;;;;;;2.33;1.77;;;;;;;;;;5029332;28;20049;-74
2023/08/05 02:14:43;;;;;;;3.58;1.98;;;;;;;;;;5028443;28;20048;-75
2023/08/05 02:17:11;;;;;;;2.85;1.90;;;;;;;;;;5042283;28;20052;-74
2023/08/05 02:19:38;;;;;;;3.95;1.90;;;;;;;;;;5041997;28;20041;-75
2023/08/05 02:22:06;;;;;;;3.38;2.10;;;;;;;;;;5028772;28;20052;-74
2023/08/05 02:24:33;;;;;;;2.55;1.95;;;;;;;;;;5046855;28;20557;-74
2023/08/05 02:27:01;;;;;;;4.28;2.05;;;;;;;;;;5020350;28;20481;-74
2023/08/05 02:29:28;;;;;;;1.88;1.58;;;;;;;;;;5046296;28;20533;-74
2023/08/05 02:31:55;;;;;;;4.32;1.95;;;;;;;;;;5028622;28;20044;-74
2023/08/05 02:34:23;;;;;;;2.47;2.13;;;;;;;;;;5028674;28;20049;-74
2023/08/05 02:36:50;;;;;;;2.08;1.83;;;;;;;;;;5044636;28;20049;-74
2023/08/05 02:39:19;;;;;;;3.28;2.00;;;;;;;;;;5040759;28;20051;-75
2023/08/05 02:41:48;;;;;;;3.67;2.00;;;;;;;;;;5039186;28;20490;-74
2023/08/05 02:44:15;;;;;;;3.92;1.75;;;;;;;;;;5047352;28;20049;-74
2023/08/05 02:46:42;;;;;;;2.85;2.20;;;;;;;;;;5037217;28;20060;-74
2023/08/05 02:49:10;;;;;;;4.40;2.20;;;;;;;;;;5038594;28;20057;-74
2023/08/05 02:51:37;;;;;;;3.22;2.10;;;;;;;;;;5046280;28;20041;-74
2023/08/05 02:54:05;;;;;;;4.35;2.20;;;;;;;;;;5028355;28;20045;-74
2023/08/05 02:56:34;;;;;;;4.82;2.17;;;;;;;;;;5046104;28;20049;-74
2023/08/05 02:59:01;;;;;;;2.97;1.90;;;;;;;;;;5045808;28;20056;-74
2023/08/05 03:01:30;;;;;;;2.03;1.77;;;;;;;;;;5026363;28;20750;-75
2023/08/05 03:03:58;;;;;;;3.03;2.10;;;;;;;;;;5029818;28;20065;-74
2023/08/05 03:06:25;;;;;;;3.15;2.20;;;;;;;;;;5046241;28;20053;-74
2023/08/05 03:08:52;;;;;;;1.83;1.73;;;;;;;;;;5036439;28;20049;-74
2023/08/05 03:11:21;;;;;;;2.55;2.15;;;;;;;;;;5016670;28;20509;-74
2023/08/05 03:13:48;;;;;;;4.78;2.22;;;;;;;;;;5025021;28;20045;-74
2023/08/05 03:16:16;;;;;;;4.25;2.60;;;;;;;;;;5023622;28;20100;-76
2023/08/05 03:18:52;;;;;;;6.80;2.20;;;;;;;;;;5017542;28;20072;-76
2023/08/05 03:21:19;;;;;;;2.53;2.15;;;;;;;;;;5028419;28;20051;-76
2023/08/05 03:23:46;;;;;;;3.33;2.47;;;;;;;;;;5046153;28;20122;-76
2023/08/05 03:26:14;;;;;;;2.75;2.45;;;;;;;;;;5026647;28;20045;-75
2023/08/05 03:28:41;;;;;;;3.17;2.45;;;;;;;;;;5020165;28;20487;-75
2023/08/05 03:31:10;;;;;;;4.00;2.60;;;;;;;;;;5053348;28;20512;-75
2023/08/05 03:33:37;;;;;;;4.55;2.35;;;;;;;;;;5020613;28;20135;-75
2023/08/05 03:36:06;;;;;;;4.10;2.50;;;;;;;;;;5020379;28;20508;-75
2023/08/05 03:38:34;;;;;;;2.72;2.30;;;;;;;;;;5021700;28;20055;-75
2023/08/05 03:41:04;;;;;;;4.75;2.55;;;;;;;;;;5019226;28;20044;-75
2023/08/05 03:43:32;;;;;;;3.25;2.80;;;;;;;;;;5028791;28;20169;-75
2023/08/05 03:46:02;;;;;;;3.58;2.60;;;;;;;;;;5021611;28;20064;-75
2023/08/05 03:48:29;;;;;;;3.00;2.70;;;;;;;;;;5027636;28;20453;-75
2023/08/05 03:50:57;;;;;;;8.15;2.97;;;;;;;;;;5044797;28;20048;-75
2023/08/05 03:53:25;;;;;;;4.88;2.63;;;;;;;;;;5022221;28;20041;-75
2023/08/05 03:55:53;;;;;;;4.72;2.60;;;;;;;;;;5049280;28;20044;-75
2023/08/05 03:58:22;;;;;;;5.90;2.58;;;;;;;;;;5018673;28;20041;-75
2023/08/05 04:00:52;;;;;;;5.15;2.95;;;;;;;;;;5010306;28;20045;-75
2023/08/05 04:03:19;;;;;;;4.47;2.70;;;;;;;;;;5022605;28;20053;-75
2023/08/05 04:05:48;;;;;;;2.88;2.60;;;;;;;;;;5014535;28;20048;-75
2023/08/05 04:08:17;;;;;;;5.20;2.50;;;;;;;;;;5017825;28;20048;-75
2023/08/05 04:10:45;;;;;;;3.53;2.47;;;;;;;;;;5044054;28;20053;-75
2023/08/05 04:13:16;;;;;;;5.30;2.88;;;;;;;;;;5052084;28;20256;-75
2023/08/05 04:15:45;;;;;;;3.60;3.30;;;;;;;;;;5026091;28;20107;-75
2023/08/05 04:18:12;;;;;;;4.03;3.13;;;;;;;;;;5042912;28;20473;-75
2023/08/05 04:20:40;;;;;;;5.68;3.33;;;;;;;;;;5044223;28;20056;-75
2023/08/05 04:23:09;;;;;;;4.40;3.70;;;;;;;;;;5026355;28;20073;-75
2023/08/05 04:25:36;;;;;;;5.70;4.10;;;;;;;;;;5044003;28;20053;-75
2023/08/05 04:28:04;;;;;;;6.63;3.95;;;;;;;;;;5043655;28;20060;-75
2023/08/05 04:30:31;;;;;;;4.65;4.15;;;;;;;;;;5036370;28;20048;-76
2023/08/05 04:32:59;;;;;;;6.68;3.60;;;;;;;;;;5044920;28;20047;-75
2023/08/05 04:35:26;;;;;;;4.93;3.70;;;;;;;;;;5045781;28;20044;-75
2023/08/05 04:37:53;;;;;;;3.72;3.45;;;;;;;;;;5044851;28;20049;-75
2023/08/05 04:40:21;;;;;;;4.00;3.53;;;;;;;;;;5044478;28;20048;-75
2023/08/05 04:42:48;;;;;;;5.72;3.38;;;;;;;;;;5036461;28;20106;-75
2023/08/05 04:45:16;;;;;;;6.90;3.38;;;;;;;;;;5044797;28;20045;-75
2023/08/05 04:47:44;;;;;;;3.20;2.97;;;;;;;;;;5018573;28;20130;-75
2023/08/05 04:50:11;;;;;;;6.13;3.17;;;;;;;;;;5043406;28;20489;-75
2023/08/05 04:52:39;;;;;;;3.47;3.13;;;;;;;;;;5044843;28;20045;-75
2023/08/05 04:55:10;;;;;;;3.60;3.30;;;;;;;;;;5043713;28;20120;-75
2023/08/05 04:57:38;;;;;;;5.45;3.20;;;;;;;;;;5044386;28;20068;-75
2023/08/05 05:00:05;;;;;;;4.75;3.00;;;;;;;;;;5043663;28;20502;-75
2023/08/05 05:02:33;;;;;;;5.53;2.92;;;;;;;;;;5044538;28;20053;-75
2023/08/05 05:05:01;;;;;;;3.97;2.78;;;;;;;;;;5044417;28;20072;-75
2023/08/05 05:07:28;;;;;;;5.97;2.80;;;;;;;;;;5035774;28;20120;-75
2023/08/05 05:09:56;;;;;;;3.28;2.75;;;;;;;;;;5043720;28;20065;-75
2023/08/05 05:12:23;;;;;;;5.13;2.80;;;;;;;;;;5044510;28;20053;-76
2023/08/05 05:14:51;;;;;;;5.43;2.70;;;;;;;;;;5044063;28;20087;-75
2023/08/05 05:17:19;;;;;;;3.25;2.60;;;;;;;;;;5040907;28;20048;-75
2023/08/05 05:19:46;;;;;;;8.50;2.78;;;;;;;;;;5043665;28;20052;-75
2023/08/05 05:22:18;;;;;;;2.90;2.53;;;;;;;;;;5049029;28;20139;-75
2023/08/05 05:24:46;;;;;;;8.02;2.50;;;;;;;;;;5049189;28;20399;-75
2023/08/05 05:27:17;;;;;;;2.65;2.50;;;;;;;;;;5047819;28;20135;-75
2023/08/05 05:29:45;;;;;;;4.07;2.88;;;;;;;;;;5047868;28;20041;-75
2023/08/05 05:32:13;;;;;;;6.32;2.85;;;;;;;;;;5039460;28;20156;-75
2023/08/05 05:34:40;;;;;;;3.55;2.40;;;;;;;;;;5024044;28;20099;-75
2023/08/05 05:37:07;;;;;;;2.70;2.50;;;;;;;;;;5038692;28;20053;-75
2023/08/05 05:39:35;;;;;;;3.53;2.90;;;;;;;;;;5048494;28;20045;-76
2023/08/05 05:42:02;;;;;;;6.70;2.90;;;;;;;;;;5048448;28;20047;-75
2023/08/05 05:44:30;;;;;;;7.30;2.70;;;;;;;;;;5030214;28;20057;-75
2023/08/05 05:46:57;;;;;;;5.72;2.65;;;;;;;;;;5047755;28;20085;-75
2023/08/05 05:49:25;;;;;;;4.18;2.83;;;;;;;;;;5048145;28;20044;-75
2023/08/05 05:51:52;;;;;;;3.95;2.90;;;;;;;;;;5048652;28;20506;-75
2023/08/05 05:54:19;;;;;;;5.03;2.75;;;;;;;;;;5041612;28;20045;-75
2023/08/05 05:56:47;;;;;;;4.43;2.65;;;;;;;;;;5045549;28;20029;-75
2023/08/05 05:59:15;;;;;;;4.95;3.47;;;;;;;;;;5038101;28;20049;-75
2023/08/05 06:04:43;;;;;;;5.63;2.85;;;;;;;;;;4986147;28;20073;-76
2023/08/05 06:07:11;;;;;;;2.85;2.38;;;;;;;;;;4988264;28;20054;-76
2023/08/05 06:09:39;;;;;;;5.15;3.22;;;;;;;;;;4988196;28;20050;-76
2023/08/05 06:12:10;;;;;;;6.90;3.10;;;;;;;;;;4986757;28;20494;-77
2023/08/05 06:14:37;;;;;;;4.32;2.95;;;;;;;;;;4986846;28;20097;-76
2023/08/05 06:17:05;;;;;;;6.78;3.05;;;;;;;;;;4984560;28;20050;-77
2023/08/05 06:19:33;;;;;;;7.50;2.95;;;;;;;;;;4987539;28;20077;-77
2023/08/05 06:22:00;;;;;;;8.60;5.72;;;;;;;;;;4987878;28;20058;-76
2023/08/05 06:24:27;;;;;;;4.38;2.83;;;;;;;;;;4984950;28;20074;-77
2023/08/05 06:26:55;;;;;;;4.95;2.90;;;;;;;;;;4987913;28;20050;-76
2023/08/05 06:29:22;;;;;;;4.75;3.22;;;;;;;;;;4986545;28;20058;-77
2023/08/05 06:31:49;;;;;;;4.85;3.60;;;;;;;;;;4988030;28;20108;-76
2023/08/05 06:34:20;;;;;;;4.07;3.05;;;;;;;;;;4987459;28;20042;-77
2023/08/05 06:36:47;;;;;;;4.25;3.00;;;;;;;;;;4987388;28;20037;-77
2023/08/05 06:39:15;;;;;;;3.33;2.75;;;;;;;;;;4987904;28;20046;-78
2023/08/05 06:41:42;;;;;;;3.47;3.05;;;;;;;;;;4987465;28;20058;-77
2023/08/05 06:44:10;;;;;;;4.03;3.45;;;;;;;;;;4986496;28;20158;-77
2023/08/05 06:46:39;;;;;;;5.80;4.00;;;;;;;;;;4987113;28;20062;-77
2023/08/05 06:49:08;;;;;;;4.95;3.88;;;;;;;;;;4986475;28;20054;-76
2023/08/05 06:51:35;;;;;;;4.30;3.10;;;;;;;;;;4985838;28;20504;-77
2023/08/05 06:54:03;;;;;;;2.75;2.53;;;;;;;;;;4984676;28;20093;-77
2023/08/05 06:56:30;;;;;;;6.20;4.10;;;;;;;;;;4984397;28;20065;-77
2023/08/05 06:58:58;;;;;;;4.18;3.78;;;;;;;;;;4983032;28;20054;-77
2023/08/05 07:01:25;;;;;;;26.83;24.15;;;;;;;;;;4975028;28;20126;-77
2023/08/05 07:03:53;;;;;;;5.38;4.80;;;;;;;;;;4982528;28;20057;-77
2023/08/05 07:06:20;;;;;;;5.15;3.95;;;;;;;;;;4986387;28;20054;-77
2023/08/05 07:08:47;;;;;;;4.00;3.70;;;;;;;;;;4986318;28;20074;-77
2023/08/05 07:11:15;;;;;;;5.63;3.97;;;;;;;;;;4986249;28;20050;-78
2023/08/05 07:13:42;;;;;;;4.43;4.03;;;;;;;;;;4985908;28;20129;-76
2023/08/05 07:16:10;;;;;;;3.80;3.60;;;;;;;;;;4986745;28;20173;-77
2023/08/05 07:18:37;;;;;;;7.15;3.70;;;;;;;;;;4985989;28;20505;-77
2023/08/05 07:21:05;;;;;;;5.28;3.97;;;;;;;;;;4986794;28;20046;-77
2023/08/05 07:23:32;;;;;;;6.05;4.20;;;;;;;;;;4985938;28;20512;-76
2023/08/05 07:26:01;;;;;;;3.67;3.47;;;;;;;;;;4986989;28;20058;-77
2023/08/05 07:28:28;;;;;;;4.43;3.22;;;;;;;;;;4978706;28;20069;-77
2023/08/05 07:31:07;;;;;;;3.38;3.17;;;;;;;;;;4986709;28;20059;-75
2023/08/05 07:33:34;;;;;;;4.63;4.13;;;;;;;;;;4979085;28;20133;-76
2023/08/05 07:36:11;;;;;;;5.05;3.97;;;;;;;;;;4985669;28;20042;-77
2023/08/05 07:38:40;;;;;;;11.68;3.83;;;;;;;;;;4986169;28;20504;-76
2023/08/05 07:41:15;;;;;;;4.25;3.53;;;;;;;;;;4985904;28;20055;-77
2023/08/05 07:43:43;;;;;;;4.35;3.47;;;;;;;;;;4986293;28;20089;-76
2023/08/05 07:46:13;;;;;;;5.93;3.72;;;;;;;;;;4984918;28;20065;-77
2023/08/05 07:48:42;;;;;;;3.58;3.08;;;;;;;;;;4985985;28;20105;-78
2023/08/05 07:51:10;;;;;;;3.92;3.50;;;;;;;;;;4985804;28;20046;-76
2023/08/05 07:53:37;;;;;;;5.43;3.90;;;;;;;;;;4985860;28;20101;-77
2023/08/05 07:56:08;;;;;;;5.43;3.75;;;;;;;;;;4980143;28;20051;-76
2023/08/05 07:58:39;;;;;;;4.38;3.65;;;;;;;;;;4986023;28;20046;-76
2023/08/05 08:01:07;;;;;;;4.50;3.40;;;;;;;;;;4985610;28;20108;-76
2023/08/05 08:03:35;;;;;;;4.82;4.30;;;;;;;;;;4984399;28;20443;-76
2023/08/05 08:06:02;;;;;;;4.85;4.35;;;;;;;;;;4986228;28;20053;-77
2023/08/05 08:08:30;;;;;;;4.03;3.72;;;;;;;;;;4981509;28;20631;-77
2023/08/05 08:10:57;;;;;;;5.35;4.53;;;;;;;;;;4984850;28;20516;-77
2023/08/05 08:13:24;;;;;;;3.17;2.88;;;;;;;;;;4982317;28;20117;-78
2023/08/05 08:15:52;;;;;;;3.78;3.35;;;;;;;;;;4985658;28;20108;-78
2023/08/05 08:18:19;;;;;;;4.05;3.72;;;;;;;;;;4981452;28;20062;-77
2023/08/05 08:20:53;;;;;;;4.43;4.03;;;;;;;;;;4985632;28;20046;-77
2023/08/05 08:23:21;;;;;;;4.15;3.80;;;;;;;;;;4985618;28;20042;-76
2023/08/05 08:25:49;;;;;;;4.53;3.90;;;;;;;;;;4986226;28;20046;-76
2023/08/05 08:28:16;;;;;;;4.40;4.00;;;;;;;;;;4986527;28;20492;-77
2023/08/05 08:30:54;;;;;;;4.50;3.97;;;;;;;;;;4986275;28;20081;-78
2023/08/05 08:33:22;;;;;;;4.20;3.80;;;;;;;;;;5000896;28;20038;-76
2023/08/05 08:35:50;;;;;;;5.20;4.10;;;;;;;;;;4985603;28;20124;-76
2023/08/05 08:38:17;;;;;;;7.70;4.70;;;;;;;;;;4984120;28;20046;-77
2023/08/05 08:40:51;;;;;;;4.93;4.53;;;;;;;;;;4985428;28;20062;-76
2023/08/05 08:43:19;;;;;;;8.38;4.65;;;;;;;;;;4983630;28;20500;-76
2023/08/05 08:45:50;;;;;;;4.85;4.20;;;;;;;;;;4983710;28;20054;-76
2023/08/05 08:48:18;;;;;;;4.80;4.43;;;;;;;;;;4984969;28;20057;-76
2023/08/05 08:50:51;;;;;;;5.07;4.57;;;;;;;;;;4985437;28;20130;-77
2023/08/05 08:53:19;;;;;;;4.90;4.50;;;;;;;;;;4988808;28;20489;-76
2023/08/05 08:55:47;;;;;;;4.03;3.63;;;;;;;;;;4989655;28;20101;-76
2023/08/05 08:58:15;;;;;;;5.05;3.70;;;;;;;;;;4988106;28;20050;-76
2023/08/05 09:00:42;;;;;;;6.32;4.82;;;;;;;;;;4989465;28;20046;-77
2023/08/05 09:03:10;;;;;;;6.07;4.55;;;;;;;;;;4987610;28;20306;-77
2023/08/05 09:05:38;;;;;;;4.90;4.43;;;;;;;;;;4989091;28;20050;-77
2023/08/05 09:08:06;;;;;;;6.13;4.13;;;;;;;;;;4987772;28;20407;-78
2023/08/05 09:10:34;;;;;;;4.55;4.25;;;;;;;;;;4990787;28;20543;-76
2023/08/05 09:13:01;;;;;;;4.50;4.20;;;;;;;;;;4989190;28;20440;-77
2023/08/05 09:15:47;;;;;;;6.13;5.55;;;;;;;;;;4987266;28;20054;-76
2023/08/05 09:18:15;;;;;;;6.03;4.43;;;;;;;;;;4990343;28;20133;-77
2023/08/05 09:20:42;;;;;;;5.18;4.63;;;;;;;;;;4988441;28;20046;-76
2023/08/05 09:23:10;;;;;;;5.30;4.47;;;;;;;;;;4991239;28;20050;-76
2023/08/05 09:25:41;;;;;;;4.55;4.25;;;;;;;;;;4990074;28;20046;-76
2023/08/05 09:28:10;;;;;;;5.25;4.60;;;;;;;;;;4990337;28;20050;-76
2023/08/05 09:30:37;;;;;;;5.80;5.20;;;;;;;;;;4981867;28;20054;-77
2023/08/05 09:33:05;;;;;;;6.47;4.47;;;;;;;;;;4988744;28;20422;-75
2023/08/05 09:35:33;;;;;;;4.82;4.47;;;;;;;;;;4988760;28;20051;-76
2023/08/05 09:38:01;;;;;;;6.05;5.55;;;;;;;;;;4987725;28;20050;-76
2023/08/05 09:40:32;;;;;;;5.80;5.40;;;;;;;;;;4988350;28;20126;-76
2023/08/05 09:42:59;;;;;;;5.10;4.70;;;;;;;;;;4986767;28;20113;-75
2023/08/05 09:45:28;;;;;;;6.25;5.18;;;;;;;;;;4988439;28;20586;-76
2023/08/05 09:48:10;;;;;;;6.30;5.70;;;;;;;;;;4987265;28;20586;-76
2023/08/05 09:50:39;;;;;;;5.68;5.13;;;;;;;;;;4981133;28;20050;-76
2023/08/05 09:53:10;;;;;;;6.10;5.50;;;;;;;;;;4987432;28;20488;-76
2023/08/05 09:55:38;;;;;;;4.50;4.18;;;;;;;;;;4987605;28;20077;-76
2023/08/05 09:58:09;;;;;;;5.70;5.20;;;;;;;;;;4986798;28;20073;-77
2023/08/05 10:00:37;;;;;;;5.20;4.75;;;;;;;;;;4988005;28;20046;-76
2023/08/05 10:03:16;;;;;;;7.70;7.00;;;;;;;;;;4988393;28;20050;-77
2023/08/05 10:05:45;;;;;;;5.63;5.10;;;;;;;;;;4990243;28;20561;-78
2023/08/05 10:08:13;;;;;;;6.32;5.82;;;;;;;;;;4985549;28;20042;-77
2023/08/05 10:10:42;;;;;;;5.90;5.50;;;;;;;;;;4977445;28;20046;-78
2023/08/05 10:13:16;;;;;;;6.22;5.65;;;;;;;;;;4993826;28;20460;-79
2023/08/05 10:15:48;;;;;;;6.55;5.32;;;;;;;;;;4982575;28;20141;-77
2023/08/05 10:18:16;;;;;;;5.75;5.35;;;;;;;;;;4984594;28;20521;-77
2023/08/05 10:20:44;;;;;;;5.88;5.38;;;;;;;;;;4977146;28;20683;-79
2023/08/05 10:23:13;;;;;;;7.22;5.20;;;;;;;;;;4987333;28;20057;-78
2023/08/05 10:25:42;;;;;;;5.70;4.88;;;;;;;;;;4990230;28;20054;-76
2023/08/05 10:28:10;;;;;;;7.03;6.43;;;;;;;;;;4990281;28;20062;-77
2023/08/05 10:30:42;;;;;;;7.72;6.80;;;;;;;;;;4993875;28;20038;-77
2023/08/05 10:33:10;;;;;;;6.25;5.80;;;;;;;;;;4992115;28;20055;-77
2023/08/05 10:35:42;;;;;;;7.70;5.40;;;;;;;;;;4990298;28;20049;-77
2023/08/05 10:38:19;;;;;;;6.40;5.80;;;;;;;;;;5003499;28;20109;-77
2023/08/05 10:40:51;;;;;;;5.72;5.32;;;;;;;;;;4979114;28;20042;-78
2023/08/05 10:43:31;;;;;;;5.50;5.10;;;;;;;;;;4986352;28;20514;-78
2023/08/05 10:46:09;;;;;;;4.57;4.18;;;;;;;;;;4988332;28;20046;-76
2023/08/05 10:48:39;;;;;;;5.30;4.80;;;;;;;;;;4987651;28;20058;-77
2023/08/05 10:51:27;;;;;;;5.43;5.03;;;;;;;;;;4988196;28;20471;-79
2023/08/05 10:53:55;;;;;;;8.25;5.63;;;;;;;;;;4987914;28;20652;-79
2023/08/05 10:56:32;;;;;;;4.97;4.43;;;;;;;;;;4988249;28;20061;-78
2023/08/05 10:59:04;;;;;;;5.75;5.35;;;;;;;;;;4987032;28;20412;-77
2023/08/05 11:01:50;;;;;;;5.57;5.07;;;;;;;;;;4988043;28;20050;-78
2023/08/05 11:04:32;;;;;;;5.78;5.28;;;;;;;;;;4988607;28;20054;-78
2023/08/05 11:07:02;;;;;;;5.43;5.00;;;;;;;;;;4989465;28;20520;-78
2023/08/05 11:09:33;;;;;;;6.22;5.70;;;;;;;;;;4989539;28;20117;-77
2023/08/05 11:12:01;;;;;;;5.65;5.22;;;;;;;;;;4987589;28;20108;-81
2023/08/05 11:14:32;;;;;;;5.40;5.00;;;;;;;;;;5003102;28;20053;-80
2023/08/05 11:17:02;;;;;;;5.47;4.97;;;;;;;;;;4987914;28;20401;-80
2023/08/05 11:19:49;;;;;;;5.57;5.15;;;;;;;;;;4987890;28;20315;-79
2023/08/05 11:22:27;;;;;;;8.73;6.00;;;;;;;;;;4986865;28;20051;-77
2023/08/05 11:25:02;;;;;;;6.30;5.70;;;;;;;;;;4981224;28;20480;-77
2023/08/05 11:27:37;;;;;;;5.38;4.97;;;;;;;;;;4987018;28;20120;-79
2023/08/05 11:30:14;;;;;;;6.78;6.18;;;;;;;;;;4987774;28;20050;-78
2023/08/05 11:32:50;;;;;;;14.55;13.23;;;;;;;;;;4986766;28;20125;-76
2023/08/05 11:35:18;;;;;;;6.63;6.03;;;;;;;;;;4987534;28;20046;-78
2023/08/05 11:37:45;;;;;;;5.55;5.05;;;;;;;;;;4976348;28;20338;-79
2023/08/05 11:40:13;;;;;;;6.32;5.72;;;;;;;;;;4985332;28;20538;-80
2023/08/05 11:42:41;;;;;;;6.18;5.70;;;;;;;;;;4979015;28;20057;-79
2023/08/05 11:45:14;;;;;;;5.97;5.43;;;;;;;;;;4987732;28;20035;-78
2023/08/05 11:47:43;;;;;;;6.45;5.85;;;;;;;;;;4986437;28;20069;-78
2023/08/05 11:50:11;;;;;;;6.20;5.60;;;;;;;;;;4982894;28;20256;-77
2023/08/05 11:52:42;;;;;;;5.57;5.15;;;;;;;;;;4982719;28;20427;-78
2023/08/05 11:55:09;;;;;;;6.43;5.70;;;;;;;;;;4984989;28;20105;-79
2023/08/05 11:57:37;;;;;;;6.45;5.95;;;;;;;;;;4986249;28;20042;-79
2023/08/05 12:00:09;;;;;;;6.63;6.05;;;;;;;;;;4990874;28;20088;-76
2023/08/05 12:02:37;;;;;;;6.88;6.25;;;;;;;;;;5000630;23;20466;-86
2023/08/05 12:05:06;;;;;;;7.15;6.45;;;;;;;;;;5009807;28;20049;-86
2023/08/05 12:07:42;;;;;;;6.53;5.80;;;;;;;;;;5005114;28;20085;-87
2023/08/05 12:10:12;;;;;;;11.50;5.72;;;;;;;;;;5024943;28;20069;-85
2023/08/05 12:12:44;;;;;;;7.85;6.40;;;;;;;;;;5015940;28;20045;-84
2023/08/05 12:15:17;;;;;;;12.55;6.55;;;;;;;;;;5021991;28;20329;-84
2023/08/05 12:17:47;;;;;;;10.38;6.82;;;;;;;;;;5007460;28;20140;-84
2023/08/05 12:20:18;;;;;;;5.53;5.22;;;;;;;;;;5035528;28;20135;-86
2023/08/05 12:22:46;;;;;;;;;;;;;;;;;;5013337;28;20050;-84
2023/08/05 12:25:13;;;;;;;5.43;5.03;;;;;;;;;;5032549;28;19925;-83
2023/08/05 12:27:41;;;;;;;9.60;7.53;;;;;;;;;;5028725;28;20075;-84
2023/08/05 12:30:09;;;;;;;6.88;6.38;;;;;;;;;;5024413;28;20072;-83
2023/08/05 12:32:37;;;;;;;8.18;7.40;;;;;;;;;;5026053;28;20099;-83
2023/08/05 12:35:06;;;;;;;10.68;8.38;;;;;;;;;;5026682;28;20472;-82
2023/08/05 12:37:35;;;;;;;60.40;9.38;;;;;;;;;;5027367;28;20136;-85
2023/08/05 12:40:06;;;;;;;13.15;9.38;;;;;;;;;;5027055;28;20072;-85
2023/08/05 12:42:33;;;;;;;30.17;10.80;;;;;;;;;;5026327;28;20049;-86
2023/08/05 12:45:03;;;;;;;11.43;7.85;;;;;;;;;;5027062;28;20418;-86
2023/08/05 12:47:32;;;;;;;17.88;9.20;;;;;;;;;;5026168;28;20414;-86
2023/08/05 12:50:00;;;;;;;10.20;9.00;;;;;;;;;;5027371;28;20042;-86
2023/08/05 12:52:54;;;;;;;12.85;8.88;;;;;;;;;;5023154;28;20156;-86
2023/08/05 12:55:22;;;;;;;13.50;9.23;;;;;;;;;;5008603;28;20052;-86
2023/08/05 12:57:49;;;;;;;15.90;10.55;;;;;;;;;;5025550;28;20049;-85
2023/08/05 13:00:17;;;;;;;13.25;9.45;;;;;;;;;;5008053;28;20128;-85
2023/08/05 13:02:48;;;;;;;14.80;9.88;;;;;;;;;;5026680;28;20072;-86
2023/08/05 13:05:21;;;;;;;12.48;9.55;;;;;;;;;;5021909;28;20041;-85
2023/08/05 13:07:49;;;;;;;12.88;9.52;;;;;;;;;;5025885;28;20120;-85
2023/08/05 13:10:16;;;;;;;12.43;9.32;;;;;;;;;;5025939;28;20511;-86
2023/08/05 13:12:44;;;;;;;19.45;9.68;;;;;;;;;;5025675;28;20083;-86
2023/08/05 13:15:13;;;;;;;19.55;10.32;;;;;;;;;;5026340;28;20054;-85
2023/08/05 13:17:41;;;;;;;9.40;8.50;;;;;;;;;;5025605;28;20054;-86
2023/08/05 13:20:08;;;;;;;14.73;9.75;;;;;;;;;;5007593;28;20120;-85
2023/08/05 13:22:35;;;;;;;8.93;7.93;;;;;;;;;;5025529;28;20136;-85
2023/08/05 13:25:06;;;;;;;8.93;7.50;;;;;;;;;;5025659;28;20124;-85
2023/08/05 13:27:34;;;;;;;12.77;8.35;;;;;;;;;;5025846;28;20514;-85
2023/08/05 13:30:01;;;;;;;9.75;7.15;;;;;;;;;;5027310;28;20052;-85
2023/08/05 13:32:29;;;;;;;13.25;7.75;;;;;;;;;;5008518;28;20046;-84
2023/08/05 13:34:59;;;;;;;10.73;7.38;;;;;;;;;;5008120;28;20052;-85
2023/08/05 13:37:26;;;;;;;12.00;6.97;;;;;;;;;;5023655;28;20042;-85
2023/08/05 13:39:54;;;;;;;9.45;7.10;;;;;;;;;;5029005;28;20045;-85
2023/08/05 13:42:21;;;;;;;7.05;6.38;;;;;;;;;;5029224;28;20064;-85
2023/08/05 13:44:48;;;;;;;5.90;5.40;;;;;;;;;;5012137;28;20060;-85
2023/08/05 13:47:16;;;;;;;5.78;5.28;;;;;;;;;;5029239;28;20136;-86
2023/08/05 13:49:43;;;;;;;4.80;4.35;;;;;;;;;;5028982;28;20049;-87
2023/08/05 13:52:20;;;;;;;4.35;4.05;;;;;;;;;;5029878;28;20099;-86
2023/08/05 13:54:47;;;;;;;3.05;2.78;;;;;;;;;;5030605;28;20396;-86
2023/08/05 14:00:08;;;;;;;4.40;2.88;;;;;;;;;;5011308;28;20049;-87
2023/08/05 14:02:41;;;;;;;2.25;2.15;;;;;;;;;;5028612;28;20041;-87
2023/08/05 14:05:08;;;;;;;2.50;2.40;;;;;;;;;;5030831;28;20052;-86
2023/08/05 14:07:36;;;;;;;2.13;2.03;;;;;;;;;;5028629;28;20134;-86
2023/08/05 14:10:03;;;;;;;4.20;2.47;;;;;;;;;;5027222;28;20052;-87
2023/08/05 14:12:31;;;;;;;2.08;1.98;;;;;;;;;;5009928;28;20060;-85
2023/08/05 14:15:01;;;;;;;2.22;2.08;;;;;;;;;;5028389;28;20053;-86
2023/08/05 14:17:29;;;;;;;2.80;2.60;;;;;;;;;;5024753;28;20124;-86
2023/08/05 14:19:56;;;;;;;5.75;2.60;;;;;;;;;;5025974;28;20057;-87
2023/08/05 14:22:24;;;;;;;4.22;3.20;;;;;;;;;;5026014;28;20136;-86
2023/08/05 14:24:51;;;;;;;5.82;3.55;;;;;;;;;;5030237;28;20401;-86
2023/08/05 14:27:19;;;;;;;5.25;3.65;;;;;;;;;;5011842;28;20045;-87
2023/08/05 14:29:46;;;;;;;7.07;4.28;;;;;;;;;;5029714;28;20443;-85
2023/08/05 14:32:16;;;;;;;5.15;4.70;;;;;;;;;;5029238;28;20049;-86
2023/08/05 14:34:46;;;;;;;4.57;4.18;;;;;;;;;;5030244;28;20057;-86
2023/08/05 14:37:25;;;;;;;6.40;4.15;;;;;;;;;;5011382;28;20132;-86
2023/08/05 14:39:53;;;;;;;4.90;4.60;;;;;;;;;;5030279;28;20045;-85
2023/08/05 14:42:20;;;;;;;4.82;4.43;;;;;;;;;;5030360;28;20049;-85
2023/08/05 14:44:48;;;;;;;7.78;5.10;;;;;;;;;;5030046;28;20046;-85
2023/08/05 14:47:15;;;;;;;7.20;4.82;;;;;;;;;;5027039;28;20461;-86
2023/08/05 14:49:42;;;;;;;4.72;4.40;;;;;;;;;;5011149;28;20084;-86
2023/08/05 14:52:10;;;;;;;6.00;5.45;;;;;;;;;;5029400;28;20503;-85
2023/08/05 14:54:37;;;;;;;5.15;4.75;;;;;;;;;;5029881;28;20129;-86
2023/08/05 14:57:04;;;;;;;4.70;4.40;;;;;;;;;;5010721;28;20125;-86
2023/08/05 14:59:32;;;;;;;5.50;4.82;;;;;;;;;;5029829;28;20079;-85